createdAt,value
2018-09-19T00:00:53.564Z,70.40
2018-09-19T00:03:22.395Z,70.50
2018-09-19T00:05:51.151Z,71.10
2018-09-19T00:08:19.930Z,71.00
2018-09-19T00:10:48.733Z,70.60
2018-09-19T00:13:17.550Z,70.50
2018-09-19T00:15:46.380Z,70.60
2018-09-19T00:18:15.155Z,70.80
2018-09-19T00:20:43.940Z,70.90
2018-09-19T00:23:12.772Z,71.30
2018-09-19T00:25:41.587Z,71.20
2018-09-19T00:28:10.405Z,71.30
2018-09-19T00:30:39.195Z,71.30
2018-09-19T00:33:07.987Z,70.80
2018-09-19T00:35:36.824Z,71.00
2018-09-19T00:38:05.653Z,70.60
2018-09-19T00:40:34.542Z,71.70
2018-09-19T00:43:03.343Z,71.50
2018-09-19T00:45:32.161Z,71.60
2018-09-19T00:48:00.989Z,71.20
2018-09-19T00:50:29.863Z,71.40
2018-09-19T00:52:58.688Z,71.90
2018-09-19T00:55:27.464Z,72.10
2018-09-19T00:57:56.284Z,72.40
2018-09-19T01:00:25.115Z,71.30
2018-09-19T01:02:53.945Z,71.80
2018-09-19T01:05:22.764Z,72.90
2018-09-19T01:07:51.652Z,73.40
2018-09-19T01:10:20.457Z,73.30
2018-09-19T01:12:49.324Z,73.60
2018-09-19T01:15:18.147Z,73.90
2018-09-19T01:17:46.973Z,73.80
2018-09-19T01:20:16.183Z,74.20
2018-09-19T01:22:44.969Z,73.80
2018-09-19T01:25:13.816Z,74.20
2018-09-19T01:27:42.602Z,74.20
2018-09-19T01:30:11.435Z,74.70
2018-09-19T01:32:40.219Z,74.10
2018-09-19T01:35:09.000Z,73.80
2018-09-19T01:37:37.854Z,74.00
2018-09-19T01:40:06.791Z,73.60
2018-09-19T01:42:35.617Z,73.90
2018-09-19T01:45:04.528Z,74.50
2018-09-19T01:47:33.319Z,74.80
2018-09-19T01:50:02.129Z,76.10
2018-09-19T01:52:30.898Z,75.70
2018-09-19T01:54:59.729Z,75.50
2018-09-19T01:57:28.482Z,75.70
2018-09-19T01:59:57.282Z,75.50
2018-09-19T02:02:26.125Z,75.80
2018-09-19T02:04:54.975Z,76.10
2018-09-19T02:07:23.817Z,76.60
2018-09-19T02:09:52.632Z,76.30
2018-09-19T02:12:21.398Z,76.00
2018-09-19T02:14:50.203Z,76.10
2018-09-19T02:17:19.003Z,76.20
2018-09-19T02:19:47.825Z,76.10
2018-09-19T02:22:16.623Z,76.80
2018-09-19T02:24:45.428Z,76.20
2018-09-19T02:27:14.225Z,76.20
2018-09-19T02:29:43.024Z,76.10
2018-09-19T02:32:11.865Z,75.70
2018-09-19T02:34:40.662Z,75.80
2018-09-19T02:37:09.460Z,75.50
2018-09-19T02:39:38.268Z,76.30
2018-09-19T02:42:07.073Z,75.40
2018-09-19T02:44:35.889Z,75.70
2018-09-19T02:47:04.676Z,76.50
2018-09-19T02:49:33.460Z,75.90
2018-09-19T02:52:02.264Z,75.80
2018-09-19T02:54:31.255Z,75.10
2018-09-19T02:57:00.065Z,75.50
2018-09-19T02:59:28.850Z,76.30
2018-09-19T03:01:57.635Z,76.30
2018-09-19T03:04:26.383Z,77.30
2018-09-19T03:06:55.185Z,77.70
2018-09-19T03:09:24.014Z,78.00
2018-09-19T03:11:52.785Z,79.00
2018-09-19T03:14:21.589Z,78.50
2018-09-19T03:19:19.231Z,80.20
2018-09-19T03:21:48.061Z,79.80
2018-09-19T03:24:16.903Z,79.30
2018-09-19T03:26:45.655Z,78.70
2018-09-19T03:29:14.433Z,78.50
2018-09-19T03:31:43.204Z,78.40
2018-09-19T03:34:12.078Z,78.80
2018-09-19T03:36:40.850Z,78.90
2018-09-19T03:39:10.627Z,79.00
2018-09-19T03:41:45.760Z,78.70
2018-09-19T03:44:14.519Z,78.40
2018-09-19T03:46:43.343Z,78.40
2018-09-19T03:49:12.133Z,78.40
2018-09-19T03:51:40.923Z,78.70
2018-09-19T03:54:10.092Z,78.40
2018-09-19T03:56:38.913Z,78.10
2018-09-19T03:59:07.801Z,78.00
2018-09-19T04:01:36.572Z,77.90
2018-09-19T04:04:05.392Z,78.20
2018-09-19T04:06:34.239Z,77.90
2018-09-19T04:09:03.233Z,77.30
2018-09-19T04:11:32.060Z,77.40
2018-09-19T04:14:00.854Z,77.00
2018-09-19T04:16:29.647Z,77.60
2018-09-19T04:18:58.447Z,78.90
2018-09-19T04:21:27.207Z,79.90
2018-09-19T04:23:55.992Z,81.40
2018-09-19T04:26:24.777Z,81.00
2018-09-19T04:28:53.562Z,81.80
2018-09-19T04:31:22.374Z,82.40
2018-09-19T04:33:51.187Z,82.80
2018-09-19T04:36:19.989Z,81.70
2018-09-19T04:38:48.796Z,81.60
2018-09-19T04:41:17.585Z,81.30
2018-09-19T04:43:46.681Z,81.10
2018-09-19T04:46:15.479Z,79.50
2018-09-19T04:48:44.292Z,79.60
2018-09-19T04:51:13.070Z,79.90
2018-09-19T04:53:41.858Z,80.30
2018-09-19T04:56:10.657Z,81.20
2018-09-19T04:58:39.439Z,81.50
2018-09-19T05:01:08.265Z,82.00
2018-09-19T05:03:37.182Z,82.20
2018-09-19T05:06:05.975Z,82.80
2018-09-19T05:08:34.780Z,83.20
2018-09-19T05:11:03.581Z,83.10
2018-09-19T05:13:32.466Z,83.10
2018-09-19T05:16:01.235Z,83.00
2018-09-19T05:18:30.038Z,83.00
2018-09-19T05:20:58.856Z,82.50
2018-09-19T05:23:27.643Z,82.30
2018-09-19T05:25:56.484Z,82.00
2018-09-19T05:28:25.304Z,81.90
2018-09-19T05:30:54.379Z,81.80
2018-09-19T05:33:23.193Z,81.60
2018-09-19T05:35:52.003Z,81.00
2018-09-19T05:38:20.847Z,80.50
2018-09-19T05:40:49.750Z,82.10
2018-09-19T05:43:18.554Z,82.10
2018-09-19T05:45:47.374Z,83.60
2018-09-19T05:48:16.179Z,84.80
2018-09-19T05:50:44.984Z,83.80
2018-09-19T05:53:13.787Z,84.30
2018-09-19T05:55:42.608Z,84.10
2018-09-19T05:58:11.420Z,83.50
2018-09-19T06:00:40.274Z,84.30
2018-09-19T06:03:09.134Z,84.30
2018-09-19T06:05:38.104Z,85.00
2018-09-19T06:08:06.939Z,84.40
2018-09-19T06:10:36.074Z,84.30
2018-09-19T06:13:04.923Z,85.10
2018-09-19T06:15:33.884Z,86.30
2018-09-19T06:18:02.865Z,86.50
2018-09-19T06:20:32.108Z,85.30
2018-09-19T06:23:01.006Z,86.20
2018-09-19T06:25:29.831Z,86.30
2018-09-19T06:27:58.823Z,87.90
2018-09-19T06:30:28.463Z,87.40
2018-09-19T06:32:57.432Z,87.00
2018-09-19T06:35:26.363Z,86.80
2018-09-19T06:37:55.235Z,87.60
2018-09-19T06:40:24.194Z,88.30
2018-09-19T06:42:53.080Z,88.90
2018-09-19T06:45:21.935Z,88.20
2018-09-19T06:47:50.896Z,88.40
2018-09-19T06:50:19.758Z,89.00
2018-09-19T06:52:48.762Z,89.20
2018-09-19T06:55:17.683Z,90.00
2018-09-19T06:57:46.688Z,89.70
2018-09-19T07:00:15.674Z,88.90
2018-09-19T07:02:44.591Z,89.50
2018-09-19T07:05:13.548Z,88.70
2018-09-19T07:07:42.461Z,88.80
2018-09-19T07:10:11.395Z,88.30
2018-09-19T07:12:40.267Z,87.50
2018-09-19T07:15:09.229Z,87.50
2018-09-19T07:17:38.143Z,86.40
2018-09-19T07:20:07.358Z,86.70
2018-09-19T07:22:36.243Z,86.90
2018-09-19T07:25:05.408Z,86.20
2018-09-19T07:27:34.347Z,85.90
2018-09-19T07:30:03.285Z,86.30
2018-09-19T07:32:32.212Z,86.30
2018-09-19T07:35:01.213Z,85.70
2018-09-19T07:37:30.098Z,85.70
2018-09-19T07:39:59.152Z,86.20
2018-09-19T07:42:28.196Z,84.90
2018-09-19T07:44:57.084Z,85.40
2018-09-19T07:47:26.066Z,85.80
2018-09-19T07:49:55.132Z,85.50
2018-09-19T07:52:24.376Z,84.30
2018-09-19T07:54:53.336Z,84.20
2018-09-19T07:57:22.416Z,83.00
2018-09-19T07:59:51.425Z,82.60
2018-09-19T08:02:20.425Z,83.10
2018-09-19T08:04:49.446Z,82.10
2018-09-19T08:07:18.477Z,82.50
2018-09-19T08:09:47.739Z,82.40
2018-09-19T08:12:16.730Z,82.90
2018-09-19T08:14:45.788Z,82.70
2018-09-19T08:17:14.770Z,84.40
2018-09-19T08:19:43.661Z,83.10
2018-09-19T08:22:12.616Z,82.30
2018-09-19T08:24:41.589Z,82.40
2018-09-19T08:27:10.538Z,82.70
2018-09-19T08:29:39.373Z,82.00
2018-09-19T08:32:08.423Z,81.50
2018-09-19T08:34:37.330Z,81.60
2018-09-19T08:37:06.238Z,81.20
2018-09-19T08:39:35.291Z,81.10
2018-09-19T08:42:04.311Z,81.90
2018-09-19T08:44:33.205Z,82.20
2018-09-19T08:47:02.098Z,81.50
2018-09-19T08:49:31.022Z,80.80
2018-09-19T08:51:59.959Z,78.60
2018-09-19T08:54:28.815Z,79.20
2018-09-19T08:56:57.838Z,78.90
2018-09-19T08:59:26.858Z,79.00
2018-09-19T09:01:55.844Z,78.30
2018-09-19T09:04:24.660Z,78.40
2018-09-19T09:06:53.464Z,78.30
2018-09-19T09:09:22.247Z,78.80
2018-09-19T09:11:51.037Z,79.30
2018-09-19T09:14:19.811Z,78.70
2018-09-19T09:16:48.662Z,78.00
2018-09-19T09:19:17.401Z,78.50
2018-09-19T09:21:46.190Z,76.70
2018-09-19T09:24:14.995Z,76.30
2018-09-19T09:26:43.852Z,76.80
2018-09-19T09:29:12.641Z,76.80
2018-09-19T09:31:41.461Z,76.40
2018-09-19T09:34:10.229Z,77.80
2018-09-19T09:36:39.134Z,78.10
2018-09-19T09:39:08.020Z,76.50
2018-09-19T09:41:36.846Z,77.50
2018-09-19T09:44:05.686Z,78.60
2018-09-19T09:46:34.510Z,76.60
2018-09-19T09:49:03.312Z,77.00
2018-09-19T09:51:32.116Z,74.70
2018-09-19T09:54:00.911Z,74.70
2018-09-19T09:56:29.754Z,75.00
2018-09-19T09:58:58.565Z,73.40
2018-09-19T10:01:27.457Z,75.40
2018-09-19T10:04:00.082Z,75.40
2018-09-19T10:06:34.121Z,75.00
2018-09-19T10:09:07.838Z,73.60
2018-09-19T10:11:40.382Z,72.80
2018-09-19T10:14:14.614Z,74.30
2018-09-19T10:16:47.410Z,74.20
2018-09-19T10:19:16.250Z,73.10
2018-09-19T10:21:52.580Z,73.60
2018-09-19T10:24:25.750Z,72.80
2018-09-19T10:26:59.141Z,72.90
2018-09-19T10:29:33.433Z,73.90
2018-09-19T10:32:04.237Z,74.60
2018-09-19T10:34:37.105Z,72.80
2018-09-19T10:37:10.953Z,72.50
2018-09-19T10:39:46.497Z,71.80
2018-09-19T10:42:19.962Z,73.00
2018-09-19T10:44:53.839Z,71.40
2018-09-19T10:47:28.332Z,72.00
2018-09-19T10:49:59.356Z,73.20
2018-09-19T10:52:31.105Z,74.20
2018-09-19T10:55:03.691Z,75.90
2018-09-19T10:57:36.605Z,71.20
2018-09-19T11:00:09.932Z,72.60
2018-09-19T11:02:39.000Z,73.80
2018-09-19T11:05:07.833Z,72.00
2018-09-19T11:07:36.699Z,70.90
2018-09-19T11:10:06.082Z,72.00
2018-09-19T11:12:34.931Z,70.90
2018-09-19T11:15:03.717Z,69.70
2018-09-19T11:17:32.543Z,68.90
2018-09-19T11:20:14.047Z,71.00
2018-09-19T11:22:47.511Z,70.80
2018-09-19T11:25:26.898Z,69.40
2018-09-19T11:28:03.167Z,69.50
2018-09-19T11:30:34.469Z,70.40
2018-09-19T11:33:05.420Z,68.00
2018-09-19T11:35:34.233Z,67.70
2018-09-19T11:38:04.707Z,66.10
2018-09-19T11:40:34.960Z,64.10
2018-09-19T11:43:05.603Z,63.20
2018-09-19T11:45:36.574Z,62.40
2018-09-19T11:48:07.653Z,62.30
2018-09-19T11:50:37.382Z,63.20
2018-09-19T11:53:10.415Z,60.90
2018-09-19T11:55:39.203Z,59.80
2018-09-19T11:58:08.062Z,59.60
2018-09-19T12:00:36.922Z,59.70
2018-09-19T12:03:05.730Z,60.10
2018-09-19T12:05:34.551Z,56.50
2018-09-19T12:08:03.329Z,57.20
2018-09-19T12:10:32.160Z,57.40
2018-09-19T12:13:00.989Z,57.90
2018-09-19T12:15:29.806Z,57.10
2018-09-19T12:17:58.649Z,58.20
2018-09-19T12:20:27.510Z,57.50
2018-09-19T12:22:56.317Z,58.10
2018-09-19T12:25:25.210Z,57.90
2018-09-19T12:27:53.992Z,57.60
2018-09-19T12:30:22.831Z,56.80
2018-09-19T12:32:51.683Z,56.10
2018-09-19T12:35:20.501Z,56.10
2018-09-19T12:37:49.337Z,55.40
2018-09-19T12:40:18.157Z,55.90
2018-09-19T12:42:47.052Z,55.90
2018-09-19T12:45:15.942Z,54.20
2018-09-19T12:47:44.751Z,54.90
2018-09-19T12:50:13.585Z,55.10
2018-09-19T12:52:42.426Z,54.10
2018-09-19T12:55:11.275Z,53.60
2018-09-19T12:57:40.093Z,55.40
2018-09-19T13:00:08.961Z,53.80
2018-09-19T13:02:37.783Z,53.60
2018-09-19T13:05:06.727Z,52.90
2018-09-19T13:07:35.540Z,52.80
2018-09-19T13:10:04.377Z,52.50
2018-09-19T13:12:33.194Z,51.90
2018-09-19T13:15:02.026Z,52.90
2018-09-19T13:17:30.846Z,53.20
2018-09-19T13:19:59.705Z,52.00
2018-09-19T13:22:28.485Z,52.50
2018-09-19T13:24:57.293Z,51.00
2018-09-19T13:27:26.063Z,50.30
2018-09-19T13:29:54.969Z,48.90
2018-09-19T13:32:23.796Z,48.80
2018-09-19T13:34:52.837Z,49.70
2018-09-19T13:37:21.647Z,48.00
2018-09-19T13:39:50.498Z,47.70
2018-09-19T13:42:19.549Z,48.10
2018-09-19T13:44:48.395Z,47.00
2018-09-19T13:47:17.242Z,47.80
2018-09-19T13:49:49.688Z,48.10
2018-09-19T13:52:18.519Z,47.00
2018-09-19T13:54:47.354Z,46.10
2018-09-19T13:57:16.189Z,45.80
2018-09-19T13:59:45.002Z,46.30
2018-09-19T14:02:13.828Z,46.90
2018-09-19T14:05:54.639Z,46.20
2018-09-19T14:08:23.545Z,45.90
2018-09-19T14:10:52.363Z,45.60
2018-09-19T14:13:21.270Z,45.60
2018-09-19T14:15:50.093Z,45.90
2018-09-19T14:18:18.967Z,45.70
2018-09-19T14:20:47.882Z,45.90
2018-09-19T14:23:16.705Z,45.90
2018-09-19T14:25:45.589Z,46.00
2018-09-19T14:28:14.644Z,46.10
2018-09-19T14:30:43.529Z,47.40
2018-09-19T14:33:12.500Z,47.80
2018-09-19T14:35:41.357Z,48.00
2018-09-19T14:38:10.413Z,47.10
2018-09-19T14:40:39.251Z,45.80
2018-09-19T14:43:08.128Z,45.00
2018-09-19T14:45:36.992Z,45.40
2018-09-19T14:48:12.400Z,45.80
2018-09-19T14:50:41.310Z,47.10
2018-09-19T14:53:10.157Z,47.60
2018-09-19T14:55:38.968Z,47.80
2018-09-19T14:58:07.933Z,46.40
2018-09-19T15:00:36.838Z,46.90
2018-09-19T15:03:05.982Z,46.90
2018-09-19T15:05:34.865Z,46.90
2018-09-19T15:08:03.723Z,46.20
2018-09-19T15:10:32.570Z,46.80
2018-09-19T15:13:01.497Z,47.60
2018-09-19T15:15:30.479Z,48.20
2018-09-19T15:17:59.370Z,48.00
2018-09-19T15:20:28.206Z,48.40
2018-09-19T15:22:56.977Z,48.20
2018-09-19T15:25:25.895Z,48.60
2018-09-19T15:27:54.857Z,50.40
2018-09-19T15:30:23.692Z,50.70
2018-09-19T15:32:52.537Z,51.30
2018-09-19T15:35:21.384Z,51.80
2018-09-19T15:37:50.174Z,51.20
2018-09-19T15:40:19.068Z,52.00
2018-09-19T15:42:47.955Z,53.70
2018-09-19T15:45:16.903Z,53.50
2018-09-19T15:47:45.778Z,54.60
2018-09-19T15:50:14.660Z,54.80
2018-09-19T15:52:43.510Z,55.50
2018-09-19T15:55:12.365Z,56.90
2018-09-19T15:57:41.223Z,57.40
2018-09-19T16:00:10.141Z,57.80
2018-09-19T16:02:38.965Z,59.30
2018-09-19T16:05:07.857Z,59.00
2018-09-19T16:07:36.787Z,58.90
2018-09-19T16:10:05.736Z,59.50
2018-09-19T16:12:34.582Z,60.00
2018-09-19T16:15:03.477Z,60.20
2018-09-19T16:17:32.318Z,60.60
2018-09-19T16:20:01.133Z,60.80
2018-09-19T16:22:29.960Z,59.80
2018-09-19T16:24:58.768Z,60.00
2018-09-19T16:27:27.567Z,60.40
2018-09-19T16:29:56.443Z,61.70
2018-09-19T16:32:25.327Z,61.50
2018-09-19T16:34:54.137Z,61.40
2018-09-19T16:37:22.978Z,61.60
2018-09-19T16:39:51.782Z,61.90
2018-09-19T16:42:20.600Z,62.30
2018-09-19T16:44:49.447Z,62.30
2018-09-19T16:47:18.312Z,62.80
2018-09-19T16:49:47.137Z,63.20
2018-09-19T16:52:16.029Z,63.60
2018-09-19T16:54:44.885Z,63.80
2018-09-19T16:57:13.715Z,64.20
2018-09-19T16:59:42.606Z,64.40
2018-09-19T17:02:11.554Z,64.40
2018-09-19T17:04:40.421Z,64.10
2018-09-19T17:07:09.666Z,63.90
2018-09-19T17:09:38.508Z,63.60
2018-09-19T17:12:07.387Z,63.50
2018-09-19T17:14:36.254Z,61.90
2018-09-19T17:17:05.425Z,61.40
2018-09-19T17:19:34.331Z,61.60
2018-09-19T17:22:03.959Z,62.90
2018-09-19T17:24:32.838Z,62.80
2018-09-19T17:27:01.692Z,62.40
2018-09-19T17:29:30.560Z,62.70
2018-09-19T17:31:59.640Z,63.00
2018-09-19T17:34:28.495Z,63.10
2018-09-19T17:36:57.328Z,63.40
2018-09-19T17:39:29.197Z,63.60
2018-09-19T17:41:58.076Z,63.30
2018-09-19T17:44:26.967Z,63.40
2018-09-19T17:46:55.855Z,63.60
2018-09-19T17:49:24.688Z,64.10
2018-09-19T17:51:53.607Z,63.90
2018-09-19T17:54:22.464Z,64.20
2018-09-19T17:56:51.344Z,65.20
2018-09-19T17:59:20.265Z,65.90
2018-09-19T18:01:49.157Z,66.30
2018-09-19T18:04:18.056Z,66.60
2018-09-19T18:06:46.871Z,67.10
2018-09-19T18:09:15.801Z,66.80
2018-09-19T18:11:44.597Z,67.10
2018-09-19T18:14:13.477Z,66.80
2018-09-19T18:16:43.000Z,66.30
2018-09-19T18:19:11.833Z,66.60
2018-09-19T18:21:40.735Z,66.70
2018-09-19T18:24:09.587Z,66.90
2018-09-19T18:26:38.397Z,67.70
2018-09-19T18:29:07.232Z,67.20
2018-09-19T18:31:36.091Z,67.80
2018-09-19T18:34:04.969Z,68.10
2018-09-19T18:36:33.834Z,68.30
2018-09-19T18:39:02.735Z,68.30
2018-09-19T18:41:31.544Z,68.50
2018-09-19T18:44:00.457Z,67.60
2018-09-19T18:46:29.261Z,66.70
2018-09-19T18:48:58.145Z,67.40
2018-09-19T18:51:27.262Z,67.90
2018-09-19T18:53:56.095Z,68.30
2018-09-19T18:56:24.930Z,68.20
2018-09-19T18:58:53.797Z,67.30
2018-09-19T19:01:22.687Z,65.50
2018-09-19T19:03:51.674Z,65.30
2018-09-19T19:06:20.576Z,64.70
2018-09-19T19:08:49.523Z,66.40
2018-09-19T19:11:18.451Z,66.40
2018-09-19T19:13:47.277Z,66.50
2018-09-19T19:16:16.434Z,66.80
2018-09-19T19:18:45.364Z,67.10
2018-09-19T19:21:14.236Z,66.80
2018-09-19T19:23:43.145Z,67.10
2018-09-19T19:26:12.010Z,66.70
2018-09-19T19:28:40.882Z,66.70
2018-09-19T19:31:09.730Z,66.70
2018-09-19T19:33:38.549Z,65.90
2018-09-19T19:36:07.499Z,66.50
2018-09-19T19:38:36.302Z,66.50
2018-09-19T19:41:05.150Z,66.50
2018-09-19T19:43:33.976Z,65.90
2018-09-19T19:46:02.793Z,66.70
2018-09-19T19:48:31.624Z,67.30
2018-09-19T19:51:00.475Z,67.20
2018-09-19T19:53:29.286Z,67.60
2018-09-19T19:55:58.099Z,66.70
2018-09-19T19:58:26.940Z,66.80
2018-09-19T20:00:55.779Z,66.40
2018-09-19T20:03:24.648Z,66.70
2018-09-19T20:05:53.474Z,66.30
2018-09-19T20:08:22.301Z,66.10
2018-09-19T20:10:51.149Z,66.30
2018-09-19T20:13:20.013Z,66.50
2018-09-19T20:15:48.818Z,67.20
2018-09-19T20:18:17.641Z,67.10
2018-09-19T20:20:46.467Z,68.00
2018-09-19T20:23:15.309Z,67.10
2018-09-19T20:25:44.144Z,67.50
2018-09-19T20:28:12.928Z,67.00
2018-09-19T20:30:41.739Z,67.40
2018-09-19T20:33:10.540Z,67.70
2018-09-19T20:35:39.372Z,67.90
2018-09-19T20:38:08.160Z,68.20
2018-09-19T20:40:36.964Z,68.20
2018-09-19T20:43:05.762Z,68.80
2018-09-19T20:45:34.612Z,68.40
2018-09-19T20:48:03.400Z,68.00
2018-09-19T20:50:32.385Z,69.10
2018-09-19T20:53:01.196Z,69.40
2018-09-19T20:55:30.062Z,69.80
2018-09-19T20:57:58.961Z,70.00
2018-09-19T21:00:27.875Z,69.40
2018-09-19T21:02:56.857Z,70.10
2018-09-19T21:05:25.689Z,69.60
2018-09-19T21:07:54.479Z,69.90
2018-09-19T21:10:23.447Z,70.00
2018-09-19T21:12:52.225Z,70.30
2018-09-19T21:15:21.157Z,70.20
2018-09-19T21:17:49.981Z,70.30
2018-09-19T21:20:18.816Z,70.20
2018-09-19T21:22:47.756Z,70.10
2018-09-19T21:25:16.571Z,70.00
2018-09-19T21:27:45.400Z,69.70
2018-09-19T21:30:14.204Z,69.50
2018-09-19T21:32:43.007Z,69.50
2018-09-19T21:35:11.845Z,69.70
2018-09-19T21:37:40.653Z,70.20
2018-09-19T21:40:09.448Z,69.40
2018-09-19T21:42:38.225Z,69.40
2018-09-19T21:45:07.054Z,69.30
2018-09-19T21:47:35.923Z,69.10
2018-09-19T21:50:04.880Z,69.10
2018-09-19T21:52:33.696Z,70.00
2018-09-19T21:55:02.813Z,69.90
2018-09-19T21:57:31.548Z,69.40
2018-09-19T22:00:00.367Z,69.70
2018-09-19T22:02:29.192Z,70.10
2018-09-19T22:04:57.995Z,70.60
2018-09-19T22:07:26.836Z,70.20
2018-09-19T22:09:55.644Z,69.80
2018-09-19T22:12:24.562Z,70.00
2018-09-19T22:14:53.344Z,69.70
2018-09-19T22:17:22.136Z,69.80
2018-09-19T22:19:50.932Z,69.70
2018-09-19T22:22:19.724Z,69.90
2018-09-19T22:24:48.584Z,69.50
2018-09-19T22:27:17.399Z,69.70
2018-09-19T22:29:46.203Z,69.20
2018-09-19T22:32:14.965Z,69.70
2018-09-19T22:34:43.786Z,69.70
2018-09-19T22:37:12.603Z,69.80
2018-09-19T22:39:41.381Z,69.60
2018-09-19T22:42:10.193Z,69.40
2018-09-19T22:44:39.012Z,70.10
2018-09-19T22:47:07.876Z,70.00
2018-09-19T22:49:36.677Z,70.70
2018-09-19T22:52:05.500Z,70.80
2018-09-19T22:54:34.306Z,70.20
2018-09-19T22:57:03.064Z,69.90
2018-09-19T22:59:31.872Z,70.60
2018-09-19T23:02:00.747Z,71.00
2018-09-19T23:04:29.526Z,70.80
2018-09-19T23:06:58.369Z,71.40
2018-09-19T23:09:27.167Z,71.80
2018-09-19T23:11:55.964Z,71.10
2018-09-19T23:14:24.793Z,71.90
2018-09-19T23:16:53.596Z,72.30
2018-09-19T23:19:22.424Z,72.00
2018-09-19T23:21:51.199Z,71.20
2018-09-19T23:24:20.009Z,72.00
2018-09-19T23:26:48.825Z,71.00
2018-09-19T23:29:17.664Z,71.00
2018-09-19T23:31:46.421Z,70.80
2018-09-19T23:34:15.176Z,70.40
2018-09-19T23:36:44.018Z,70.70
2018-09-19T23:39:12.829Z,71.10
2018-09-19T23:41:41.671Z,70.90
2018-09-19T23:44:10.471Z,71.40
2018-09-19T23:46:39.356Z,71.80
2018-09-19T23:49:08.148Z,72.00
2018-09-19T23:51:36.977Z,72.30
2018-09-19T23:54:05.772Z,72.00
2018-09-19T23:56:34.571Z,72.00
2018-09-19T23:59:03.384Z,71.70
